createdAt,value
2019-04-14T09:24:45.150Z,20.50
2019-04-14T09:29:36.802Z,15.00
2019-04-14T09:34:28.651Z,13.30
2019-04-14T09:39:20.885Z,12.60
2019-04-14T09:44:12.650Z,13.30
2019-04-14T09:49:04.914Z,12.00
2019-04-14T09:53:57.228Z,12.60
2019-04-14T09:58:49.707Z,11.00
2019-04-14T10:03:42.365Z,12.80
2019-04-14T10:08:34.764Z,10.90
2019-04-14T10:13:28.958Z,10.10
2019-04-14T10:18:20.475Z,9.20
2019-04-14T10:23:12.698Z,10.70
2019-04-14T10:28:04.644Z,9.80
2019-04-14T10:32:56.979Z,9.70
2019-04-14T10:37:49.536Z,9.60
2019-04-14T10:42:41.637Z,9.40
2019-04-14T10:47:34.005Z,10.00
2019-04-14T10:52:26.707Z,10.10
2019-04-14T10:57:19.024Z,9.80
2019-04-14T11:02:11.836Z,10.50
2019-04-14T11:07:03.921Z,9.80
2019-04-14T11:11:56.304Z,11.50
2019-04-14T11:16:48.711Z,9.90
2019-04-14T11:21:43.363Z,9.40
2019-04-14T11:26:35.195Z,9.50
2019-04-14T11:31:27.452Z,10.30
2019-04-14T11:36:19.839Z,9.40
2019-04-14T11:41:11.727Z,8.70
2019-04-14T11:46:04.663Z,9.70
2019-04-14T11:50:56.962Z,8.70
2019-04-14T11:55:49.894Z,8.90
2019-04-14T12:00:42.457Z,8.80
2019-04-14T12:05:35.011Z,8.80
2019-04-14T12:10:27.366Z,10.20
2019-04-14T12:15:19.744Z,9.00
2019-04-14T12:20:12.021Z,8.90
2019-04-14T12:25:04.205Z,8.80
2019-04-14T12:29:57.183Z,8.80
2019-04-14T12:34:51.300Z,8.80
2019-04-14T12:39:43.320Z,8.10
2019-04-14T12:44:35.521Z,7.60
2019-04-14T12:49:27.760Z,9.10
2019-04-14T12:54:19.915Z,8.20
2019-04-14T12:59:12.175Z,9.20
2019-04-14T13:04:04.286Z,9.10
2019-04-14T13:08:57.111Z,9.00
2019-04-14T13:13:49.570Z,9.20
2019-04-14T13:18:42.176Z,11.20
2019-04-14T13:23:34.520Z,9.20
2019-04-14T13:28:26.683Z,8.70
2019-04-14T13:33:19.106Z,10.00
2019-04-14T13:38:11.034Z,10.80
2019-04-14T13:43:03.327Z,11.10
2019-04-14T13:47:55.828Z,10.10
2019-04-14T13:52:48.370Z,10.60
2019-04-14T13:57:40.919Z,10.80
2019-04-14T14:02:33.573Z,11.10
2019-04-14T14:07:25.459Z,11.30
2019-04-14T14:12:17.211Z,10.80
2019-04-14T14:17:08.941Z,10.40
2019-04-14T14:22:01.392Z,11.50
2019-04-14T14:26:53.530Z,12.00
2019-04-14T14:31:45.564Z,12.00
2019-04-14T14:36:37.365Z,11.20
2019-04-14T14:41:29.238Z,10.10
2019-04-14T14:46:21.502Z,10.10
2019-04-14T14:51:14.010Z,11.00
2019-04-14T14:56:06.233Z,9.70
2019-04-14T15:00:58.147Z,11.00
2019-04-14T15:05:50.062Z,9.70
2019-04-14T15:10:42.011Z,10.00
2019-04-14T15:15:33.783Z,9.90
2019-04-14T15:20:25.621Z,9.90
2019-04-14T15:25:17.714Z,10.30
2019-04-14T15:30:09.429Z,8.10
2019-04-14T15:35:01.234Z,7.80
2019-04-14T15:39:52.974Z,9.20
2019-04-14T15:44:44.760Z,10.00
2019-04-14T15:49:36.970Z,8.60
2019-04-14T15:54:29.374Z,9.70
2019-04-14T15:59:21.042Z,7.40
2019-04-14T16:04:12.631Z,9.90
2019-04-14T16:09:04.615Z,8.60
2019-04-14T16:13:56.825Z,8.60
2019-04-14T16:18:49.292Z,7.00
2019-04-14T16:23:50.572Z,9.10
2019-04-14T16:28:41.089Z,8.80
2019-04-14T16:33:32.798Z,6.90
2019-04-14T16:38:24.522Z,8.00
2019-04-14T16:43:16.662Z,8.90
2019-04-14T16:48:08.852Z,7.90
2019-04-14T16:53:00.838Z,6.70
2019-04-14T16:57:52.877Z,7.90
2019-04-14T17:02:44.871Z,6.30
2019-04-14T17:07:37.049Z,8.10
2019-04-14T17:12:29.048Z,8.50
2019-04-14T17:17:20.809Z,8.60
2019-04-14T17:22:12.867Z,9.20
2019-04-14T17:27:04.859Z,7.90
2019-04-14T17:31:56.939Z,6.40
2019-04-14T17:36:48.899Z,8.60
2019-04-14T17:41:43.298Z,7.70
2019-04-14T17:46:35.241Z,7.10
2019-04-14T17:51:27.036Z,7.90
2019-04-14T17:56:18.970Z,6.80
2019-04-14T18:01:11.145Z,7.60
2019-04-14T18:06:03.177Z,7.90
2019-04-14T18:10:55.126Z,6.60
2019-04-14T18:15:47.041Z,7.50
2019-04-14T18:20:38.991Z,6.90
2019-04-14T18:25:31.118Z,6.90
2019-04-14T18:30:23.143Z,7.60
2019-04-14T18:35:15.188Z,6.00
2019-04-14T18:40:09.247Z,7.90
2019-04-14T18:45:00.877Z,7.10
2019-04-14T18:49:53.978Z,7.20
2019-04-14T18:54:54.489Z,6.70
2019-04-14T18:59:44.916Z,7.60
2019-04-14T19:04:36.769Z,7.10
2019-04-14T19:09:28.854Z,9.10
2019-04-14T19:14:20.871Z,6.80
2019-04-14T19:19:12.815Z,8.40
2019-04-14T19:24:04.712Z,7.40
2019-04-14T19:28:56.684Z,6.70
2019-04-14T19:33:48.844Z,7.30
2019-04-14T19:38:41.062Z,7.50
2019-04-14T19:43:33.652Z,7.50
2019-04-14T19:48:25.620Z,6.60
2019-04-14T19:53:17.409Z,7.30
2019-04-14T19:58:09.508Z,7.50
2019-04-14T20:03:01.526Z,7.30
2019-04-14T20:07:53.422Z,7.20
2019-04-14T20:12:45.411Z,7.60
2019-04-14T20:17:37.353Z,9.40
2019-04-14T20:22:29.282Z,6.80
2019-04-14T20:27:21.688Z,7.50
2019-04-14T20:32:13.604Z,7.50
2019-04-14T20:37:05.730Z,8.70
2019-04-14T20:41:57.945Z,7.30
2019-04-14T20:46:49.941Z,8.60
2019-04-14T20:51:41.938Z,7.10
2019-04-14T20:56:33.823Z,7.00
2019-04-14T21:01:26.079Z,6.20
2019-04-14T21:06:17.746Z,5.60
2019-04-14T21:11:09.670Z,5.60
